Weather at Nosara Airport

Public forecast

Using degrees Celsius for public forecast. Weather courtesy of forecast.io.

Closest aviation weather report (METAR) to Nosara Airport

Report is more than 6 hours old.

Closest report is La Guinea Airport, 28.7 nm (53.2 km) NNE. Retrieved 2014/12/04 15:00 UTC (6 years ago):

MRLN 041500Z 30004KT 9999 BKN020 27/23 A2982

Closest aviation forecast (TAF) to Nosara Airport

Closest forecast is Daniel Oduber Quiros International Airport, 37.6 nm (69.6 km) N. Retrieved 2021/04/12 12:03 UTC (1 hour ago):

TAF TAF MRLB 121100Z 1212/1312 08005KT 9999 FEW040 TX35/1219Z TN21/1212Z TEMPO 1212/1214 15004KT BECMG 1216/1218 29007KT BECMG 1302/1304 12005KT